createdAt,value
2017-05-17T00:00:37.124Z,20.02
2017-05-17T00:01:38.547Z,20.05
2017-05-17T00:02:39.979Z,20.02
2017-05-17T00:03:41.416Z,20.23
2017-05-17T00:04:42.847Z,20.20
2017-05-17T00:05:44.276Z,20.08
2017-05-17T00:06:45.712Z,20.09
2017-05-17T00:07:47.141Z,19.94
2017-05-17T00:08:48.571Z,19.97
2017-05-17T00:09:50.001Z,19.90
2017-05-17T00:10:52.304Z,19.91
2017-05-17T00:11:53.733Z,19.86
2017-05-17T00:12:55.173Z,19.94
2017-05-17T00:13:56.611Z,19.98
2017-05-17T00:14:58.040Z,19.98
2017-05-17T00:15:59.494Z,20.06
2017-05-17T00:17:00.977Z,19.94
2017-05-17T00:18:02.420Z,20.00
2017-05-17T00:19:03.843Z,19.93
2017-05-17T00:20:05.276Z,20.06
2017-05-17T00:21:06.707Z,19.87
2017-05-17T00:22:08.151Z,19.97
2017-05-17T00:23:09.583Z,19.84
2017-05-17T00:24:11.015Z,19.75
2017-05-17T00:25:12.446Z,19.75
2017-05-17T00:26:13.881Z,19.70
2017-05-17T00:27:15.323Z,19.78
2017-05-17T00:28:16.775Z,19.61
2017-05-17T00:29:18.202Z,19.61
2017-05-17T00:30:19.630Z,19.60
2017-05-17T00:31:21.852Z,19.54
2017-05-17T00:32:23.295Z,19.51
2017-05-17T00:33:24.739Z,19.55
2017-05-17T00:34:26.171Z,19.65
2017-05-17T00:35:27.605Z,19.60
2017-05-17T00:36:29.029Z,19.58
2017-05-17T00:37:30.462Z,19.54
2017-05-17T00:38:31.889Z,19.48
2017-05-17T00:39:33.335Z,19.50
2017-05-17T00:40:34.763Z,19.51
2017-05-17T00:41:36.196Z,19.57
2017-05-17T00:42:37.627Z,19.35
2017-05-17T00:43:39.719Z,19.51
2017-05-17T00:44:41.150Z,19.47
2017-05-17T00:45:42.611Z,19.38
2017-05-17T00:46:44.040Z,19.46
2017-05-17T00:47:45.468Z,19.24
2017-05-17T00:48:46.899Z,19.25
2017-05-17T00:49:48.332Z,19.29
2017-05-17T00:50:49.761Z,19.06
2017-05-17T00:51:51.192Z,19.08
2017-05-17T00:52:52.619Z,19.05
2017-05-17T00:53:54.053Z,19.32
2017-05-17T00:54:55.490Z,19.18
2017-05-17T00:55:56.913Z,19.32
2017-05-17T00:56:58.346Z,19.33
2017-05-17T00:57:59.780Z,19.25
2017-05-17T00:59:01.211Z,19.17
2017-05-17T01:00:02.642Z,19.18
2017-05-17T01:01:04.072Z,19.21
2017-05-17T01:02:05.501Z,19.35
2017-05-17T01:03:06.933Z,19.32
2017-05-17T01:04:08.360Z,19.28
2017-05-17T01:05:09.803Z,19.33
2017-05-17T01:06:11.228Z,19.24
2017-05-17T01:07:12.712Z,19.28
2017-05-17T01:08:14.149Z,19.31
2017-05-17T01:09:15.592Z,19.35
2017-05-17T01:10:17.011Z,19.33
2017-05-17T01:11:18.450Z,19.42
2017-05-17T01:12:19.878Z,19.43
2017-05-17T01:13:21.308Z,19.35
2017-05-17T01:14:22.746Z,19.35
2017-05-17T01:15:24.179Z,19.43
2017-05-17T01:16:25.615Z,19.36
2017-05-17T01:17:27.051Z,19.29
2017-05-17T01:18:28.479Z,19.33
2017-05-17T01:19:29.905Z,19.42
2017-05-17T01:20:31.349Z,19.36
2017-05-17T01:21:32.888Z,19.42
2017-05-17T01:22:34.324Z,19.39
2017-05-17T01:23:35.751Z,19.46
2017-05-17T01:24:37.195Z,19.42
2017-05-17T01:25:38.673Z,19.38
2017-05-17T01:26:40.101Z,19.39
2017-05-17T01:27:41.535Z,19.39
2017-05-17T01:28:43.001Z,19.39
2017-05-17T01:29:44.431Z,19.48
2017-05-17T01:30:45.863Z,19.42
2017-05-17T01:31:47.322Z,19.46
2017-05-17T01:32:48.756Z,19.42
2017-05-17T01:33:50.184Z,19.42
2017-05-17T01:34:51.617Z,19.40
2017-05-17T01:35:53.045Z,19.40
2017-05-17T01:36:54.483Z,19.47
2017-05-17T01:37:55.918Z,19.40
2017-05-17T01:38:57.357Z,19.36
2017-05-17T01:39:58.890Z,19.39
2017-05-17T01:41:00.323Z,19.33
2017-05-17T01:42:01.756Z,19.10
2017-05-17T01:43:03.189Z,19.17
2017-05-17T01:44:04.620Z,19.01
2017-05-17T01:45:06.055Z,19.18
2017-05-17T01:46:07.483Z,19.25
2017-05-17T01:47:08.917Z,19.31
2017-05-17T01:48:10.351Z,19.42
2017-05-17T01:49:11.785Z,19.14
2017-05-17T01:50:13.223Z,18.83
2017-05-17T01:51:14.659Z,18.86
2017-05-17T01:52:16.092Z,19.08
2017-05-17T01:53:17.519Z,19.11
2017-05-17T01:54:18.958Z,19.21
2017-05-17T01:55:20.388Z,18.99
2017-05-17T01:56:21.823Z,19.10
2017-05-17T01:57:23.259Z,19.20
2017-05-17T01:58:24.692Z,19.14
2017-05-17T01:59:26.171Z,19.17
2017-05-17T02:00:27.555Z,19.24
2017-05-17T02:01:28.988Z,19.28
2017-05-17T02:02:30.421Z,19.29
2017-05-17T02:03:31.862Z,19.01
2017-05-17T02:04:33.304Z,19.10
2017-05-17T02:05:34.732Z,19.06
2017-05-17T02:06:36.156Z,19.06
2017-05-17T02:07:37.589Z,19.11
2017-05-17T02:08:39.027Z,19.06
2017-05-17T02:09:40.454Z,19.25
2017-05-17T02:10:41.889Z,19.18
2017-05-17T02:11:43.321Z,19.08
2017-05-17T02:12:44.755Z,18.98
2017-05-17T02:13:46.189Z,19.05
2017-05-17T02:14:47.621Z,19.14
2017-05-17T02:15:49.052Z,19.01
2017-05-17T02:16:50.484Z,19.24
2017-05-17T02:17:51.913Z,19.31
2017-05-17T02:18:53.350Z,19.29
2017-05-17T02:19:54.775Z,19.17
2017-05-17T02:20:56.206Z,19.14
2017-05-17T02:21:57.637Z,19.14
2017-05-17T02:22:59.074Z,19.06
2017-05-17T02:24:00.504Z,19.20
2017-05-17T02:25:01.934Z,19.17
2017-05-17T02:26:03.373Z,19.24
2017-05-17T02:27:04.805Z,19.29
2017-05-17T02:28:06.241Z,19.32
2017-05-17T02:29:07.670Z,19.35
2017-05-17T02:30:09.105Z,19.47
2017-05-17T02:31:10.534Z,19.25
2017-05-17T02:32:11.958Z,19.17
2017-05-17T02:33:13.389Z,19.29
2017-05-17T02:34:14.824Z,19.35
2017-05-17T02:35:16.258Z,19.21
2017-05-17T02:36:17.676Z,19.31
2017-05-17T02:37:19.111Z,19.25
2017-05-17T02:38:20.542Z,19.18
2017-05-17T02:39:21.974Z,19.14
2017-05-17T02:40:23.403Z,19.14
2017-05-17T02:41:24.833Z,19.15
2017-05-17T02:42:28.877Z,19.20
2017-05-17T02:43:30.299Z,19.21
2017-05-17T02:44:31.733Z,19.18
2017-05-17T02:45:33.229Z,19.02
2017-05-17T02:46:34.661Z,19.02
2017-05-17T02:47:36.093Z,19.13
2017-05-17T02:48:37.518Z,19.20
2017-05-17T02:49:38.957Z,19.21
2017-05-17T02:50:40.393Z,19.33
2017-05-17T02:51:41.827Z,19.32
2017-05-17T02:52:43.256Z,19.31
2017-05-17T02:53:44.731Z,19.25
2017-05-17T02:54:46.157Z,19.21
2017-05-17T02:55:47.592Z,19.08
2017-05-17T02:56:49.029Z,19.14
2017-05-17T02:57:50.469Z,19.11
2017-05-17T02:58:51.897Z,19.13
2017-05-17T02:59:53.420Z,19.02
2017-05-17T03:00:54.846Z,19.11
2017-05-17T03:01:56.281Z,19.08
2017-05-17T03:02:57.712Z,19.02
2017-05-17T03:03:59.265Z,18.94
2017-05-17T03:05:00.702Z,19.02
2017-05-17T03:06:02.132Z,19.02
2017-05-17T03:07:03.564Z,19.11
2017-05-17T03:08:04.996Z,19.13
2017-05-17T03:09:06.425Z,19.24
2017-05-17T03:10:07.851Z,19.21
2017-05-17T03:11:10.212Z,19.29
2017-05-17T03:12:10.665Z,19.25
2017-05-17T03:13:12.095Z,19.47
2017-05-17T03:14:13.526Z,19.42
2017-05-17T03:15:14.949Z,19.40
2017-05-17T03:16:16.390Z,19.43
2017-05-17T03:17:17.815Z,19.46
2017-05-17T03:18:19.249Z,19.51
2017-05-17T03:19:20.678Z,19.54
2017-05-17T03:20:22.125Z,19.57
2017-05-17T03:21:23.561Z,19.60
2017-05-17T03:22:25.043Z,19.63
2017-05-17T03:23:26.419Z,19.58
2017-05-17T03:24:27.853Z,19.55
2017-05-17T03:25:29.285Z,19.58
2017-05-17T03:26:31.444Z,19.69
2017-05-17T03:27:32.868Z,19.75
2017-05-17T03:28:34.304Z,19.88
2017-05-17T03:29:35.733Z,19.86
2017-05-17T03:30:37.170Z,19.93
2017-05-17T03:31:38.603Z,19.84
2017-05-17T03:32:41.447Z,19.84
2017-05-17T03:33:42.907Z,19.86
2017-05-17T03:34:44.339Z,19.76
2017-05-17T03:35:45.779Z,19.75
2017-05-17T03:36:47.207Z,19.76
2017-05-17T03:37:48.639Z,19.65
2017-05-17T03:38:50.079Z,19.73
2017-05-17T03:39:51.505Z,19.61
2017-05-17T03:40:52.937Z,19.47
2017-05-17T03:41:54.370Z,19.51
2017-05-17T03:42:55.799Z,19.43
2017-05-17T03:43:57.234Z,19.58
2017-05-17T03:44:58.665Z,19.47
2017-05-17T03:46:00.095Z,19.48
2017-05-17T03:47:01.534Z,19.40
2017-05-17T03:48:02.964Z,19.40
2017-05-17T03:49:04.393Z,19.39
2017-05-17T03:50:05.823Z,19.54
2017-05-17T03:51:07.255Z,19.61
2017-05-17T03:52:08.685Z,19.57
2017-05-17T03:53:10.125Z,19.60
2017-05-17T03:54:11.556Z,19.54
2017-05-17T03:55:12.984Z,19.48
2017-05-17T03:56:14.420Z,19.25
2017-05-17T03:57:15.850Z,19.38
2017-05-17T03:58:17.287Z,19.50
2017-05-17T03:59:18.725Z,19.43
2017-05-17T04:00:20.162Z,19.47
2017-05-17T04:01:21.599Z,19.47
2017-05-17T04:02:23.034Z,19.40
2017-05-17T04:03:24.459Z,19.42
2017-05-17T04:04:25.890Z,19.43
2017-05-17T04:05:27.318Z,19.46
2017-05-17T04:06:28.750Z,19.54
2017-05-17T04:07:30.181Z,19.57
2017-05-17T04:08:31.610Z,19.36
2017-05-17T04:09:33.045Z,19.54
2017-05-17T04:10:34.476Z,19.51
2017-05-17T04:11:35.902Z,19.53
2017-05-17T04:12:37.335Z,19.40
2017-05-17T04:13:38.765Z,19.35
2017-05-17T04:14:40.192Z,19.25
2017-05-17T04:15:41.627Z,19.17
2017-05-17T04:16:43.057Z,19.32
2017-05-17T04:17:44.489Z,19.54
2017-05-17T04:18:45.923Z,19.47
2017-05-17T04:19:47.354Z,19.57
2017-05-17T04:20:48.796Z,19.58
2017-05-17T04:21:50.232Z,19.63
2017-05-17T04:22:51.665Z,19.63
2017-05-17T04:23:53.090Z,19.63
2017-05-17T04:24:54.531Z,19.70
2017-05-17T04:25:55.978Z,19.60
2017-05-17T04:26:57.420Z,19.53
2017-05-17T04:27:58.855Z,19.48
2017-05-17T04:29:00.293Z,19.48
2017-05-17T04:30:01.721Z,19.53
2017-05-17T04:31:03.158Z,19.38
2017-05-17T04:32:04.586Z,19.39
2017-05-17T04:33:06.026Z,19.43
2017-05-17T04:34:07.458Z,19.42
2017-05-17T04:35:08.894Z,19.40
2017-05-17T04:36:10.330Z,19.47
2017-05-17T04:37:11.765Z,19.46
2017-05-17T04:38:13.201Z,19.51
2017-05-17T04:39:14.637Z,19.53
2017-05-17T04:40:16.068Z,19.54
2017-05-17T04:41:17.512Z,19.39
2017-05-17T04:42:18.937Z,19.46
2017-05-17T04:43:20.384Z,19.39
2017-05-17T04:44:21.813Z,19.47
2017-05-17T04:45:23.244Z,19.53
2017-05-17T04:46:24.681Z,19.60
2017-05-17T04:47:26.118Z,19.51
2017-05-17T04:48:27.549Z,19.50
2017-05-17T04:49:28.987Z,19.57
2017-05-17T04:50:30.425Z,19.57
2017-05-17T04:51:31.851Z,19.46
2017-05-17T04:52:33.314Z,19.51
2017-05-17T04:53:34.744Z,19.70
2017-05-17T04:54:36.179Z,19.50
2017-05-17T04:55:37.617Z,19.65
2017-05-17T04:56:39.088Z,19.58
2017-05-17T04:57:40.526Z,19.73
2017-05-17T04:58:41.960Z,19.58
2017-05-17T04:59:43.398Z,19.68
2017-05-17T05:00:44.836Z,19.72
2017-05-17T05:01:46.271Z,19.84
2017-05-17T05:02:47.711Z,19.87
2017-05-17T05:03:49.157Z,19.76
2017-05-17T05:04:50.594Z,19.79
2017-05-17T05:05:52.036Z,19.75
2017-05-17T05:06:53.472Z,19.84
2017-05-17T05:07:54.961Z,19.91
2017-05-17T05:08:56.398Z,19.93
2017-05-17T05:09:57.838Z,20.08
2017-05-17T05:10:59.323Z,20.08
2017-05-17T05:12:00.762Z,20.03
2017-05-17T05:13:02.196Z,20.10
2017-05-17T05:14:04.339Z,20.08
2017-05-17T05:15:05.784Z,20.03
2017-05-17T05:16:07.223Z,20.08
2017-05-17T05:17:08.650Z,20.23
2017-05-17T05:18:10.084Z,20.20
2017-05-17T05:19:11.524Z,20.15
2017-05-17T05:20:12.955Z,20.25
2017-05-17T05:21:14.400Z,20.15
2017-05-17T05:22:15.830Z,20.12
2017-05-17T05:23:17.265Z,20.08
2017-05-17T05:24:18.698Z,20.25
2017-05-17T05:25:20.134Z,20.27
2017-05-17T05:26:21.566Z,20.02
2017-05-17T05:27:23.517Z,20.02
2017-05-17T05:28:24.943Z,20.06
2017-05-17T05:29:26.378Z,20.27
2017-05-17T05:30:27.817Z,20.30
2017-05-17T05:31:29.255Z,20.30
2017-05-17T05:32:30.684Z,20.18
2017-05-17T05:33:32.121Z,20.16
2017-05-17T05:34:33.564Z,20.27
2017-05-17T05:35:35.001Z,20.16
2017-05-17T05:36:36.441Z,20.21
2017-05-17T05:37:37.864Z,20.34
2017-05-17T05:38:39.306Z,20.33
2017-05-17T05:39:40.746Z,20.33
2017-05-17T05:40:42.181Z,20.51
2017-05-17T05:41:43.613Z,20.31
2017-05-17T05:42:45.050Z,20.39
2017-05-17T05:43:46.483Z,20.35
2017-05-17T05:44:47.915Z,20.50
2017-05-17T05:45:49.349Z,20.47
2017-05-17T05:46:50.832Z,20.31
2017-05-17T05:47:52.262Z,20.42
2017-05-17T05:48:53.708Z,20.47
2017-05-17T05:49:55.146Z,20.35
2017-05-17T05:50:56.586Z,20.56
2017-05-17T05:51:58.918Z,20.43
2017-05-17T05:53:00.353Z,20.46
2017-05-17T05:54:02.381Z,20.62
2017-05-17T05:55:03.814Z,20.59
2017-05-17T05:56:05.248Z,20.68
2017-05-17T05:57:06.681Z,20.69
2017-05-17T05:58:08.115Z,20.81
2017-05-17T05:59:09.549Z,20.77
2017-05-17T06:00:10.985Z,20.68
2017-05-17T06:01:12.426Z,20.77
2017-05-17T06:02:13.860Z,20.83
2017-05-17T06:03:15.292Z,20.68
2017-05-17T06:04:16.723Z,20.64
2017-05-17T06:05:18.158Z,20.71
2017-05-17T06:06:19.586Z,20.87
2017-05-17T06:07:21.018Z,20.89
2017-05-17T06:08:22.452Z,20.83
2017-05-17T06:09:23.894Z,20.87
2017-05-17T06:10:25.321Z,20.90
2017-05-17T06:11:26.756Z,20.90
2017-05-17T06:12:28.188Z,20.84
2017-05-17T06:13:29.621Z,20.84
2017-05-17T06:14:31.062Z,20.87
2017-05-17T06:15:32.505Z,20.77
2017-05-17T06:16:33.944Z,20.83
2017-05-17T06:17:35.381Z,20.86
2017-05-17T06:18:36.816Z,20.90
2017-05-17T06:19:38.252Z,20.90
2017-05-17T06:20:39.690Z,20.95
2017-05-17T06:21:41.121Z,20.89
2017-05-17T06:22:42.558Z,20.98
2017-05-17T06:23:43.987Z,20.84
2017-05-17T06:24:45.420Z,20.93
2017-05-17T06:25:46.859Z,20.95
2017-05-17T06:26:48.294Z,20.95
2017-05-17T06:27:49.734Z,21.13
2017-05-17T06:28:51.165Z,21.01
2017-05-17T06:29:52.601Z,21.13
2017-05-17T06:30:54.031Z,21.08
2017-05-17T06:31:55.471Z,21.26
2017-05-17T06:32:56.909Z,21.05
2017-05-17T06:33:58.345Z,21.04
2017-05-17T06:34:59.779Z,21.01
2017-05-17T06:36:01.212Z,20.95
2017-05-17T06:37:02.645Z,21.09
2017-05-17T06:38:04.080Z,21.27
2017-05-17T06:39:05.515Z,21.14
2017-05-17T06:40:06.948Z,21.21
2017-05-17T06:41:08.388Z,21.06
2017-05-17T06:42:09.822Z,21.30
2017-05-17T06:43:11.266Z,21.41
2017-05-17T06:44:12.704Z,21.46
2017-05-17T06:45:14.143Z,21.53
2017-05-17T06:46:15.584Z,21.60
2017-05-17T06:47:17.024Z,21.64
2017-05-17T06:48:18.466Z,21.79
2017-05-17T06:49:19.914Z,21.60
2017-05-17T06:50:21.346Z,21.74
2017-05-17T06:51:22.789Z,21.81
2017-05-17T06:52:24.230Z,21.60
2017-05-17T06:53:25.661Z,21.71
2017-05-17T06:54:27.098Z,21.79
2017-05-17T06:55:28.533Z,21.92
2017-05-17T06:56:29.974Z,21.82
2017-05-17T06:57:31.411Z,21.83
2017-05-17T06:58:32.936Z,21.78
2017-05-17T06:59:34.321Z,21.94
2017-05-17T07:00:35.754Z,22.09
2017-05-17T07:01:37.214Z,22.07
2017-05-17T07:02:38.693Z,22.06
2017-05-17T07:03:40.135Z,22.17
2017-05-17T07:04:41.576Z,22.10
2017-05-17T07:05:43.011Z,22.34
2017-05-17T07:06:44.448Z,22.25
2017-05-17T07:07:45.883Z,22.39
2017-05-17T07:08:47.363Z,22.39
2017-05-17T07:09:48.792Z,22.44
2017-05-17T07:10:50.231Z,22.54
2017-05-17T07:11:51.666Z,22.57
2017-05-17T07:12:53.111Z,22.56
2017-05-17T07:13:54.552Z,22.64
2017-05-17T07:14:55.993Z,22.72
2017-05-17T07:15:57.432Z,22.68
2017-05-17T07:16:58.876Z,22.78
2017-05-17T07:18:00.312Z,22.82
2017-05-17T07:19:01.755Z,22.74
2017-05-17T07:20:03.202Z,22.74
2017-05-17T07:21:04.702Z,22.71
2017-05-17T07:22:06.141Z,22.77
2017-05-17T07:23:07.582Z,22.86
2017-05-17T07:24:09.012Z,23.07
2017-05-17T07:25:10.444Z,23.08
2017-05-17T07:26:11.883Z,23.04
2017-05-17T07:27:13.320Z,23.01
2017-05-17T07:28:14.764Z,23.02
2017-05-17T07:29:16.204Z,23.08
2017-05-17T07:30:17.635Z,23.15
2017-05-17T07:31:19.089Z,23.20
2017-05-17T07:32:20.506Z,23.20
2017-05-17T07:33:21.995Z,23.11
2017-05-17T07:34:23.397Z,23.01
2017-05-17T07:35:24.838Z,23.19
2017-05-17T07:36:26.276Z,23.07
2017-05-17T07:37:27.715Z,23.31
2017-05-17T07:38:29.144Z,23.20
2017-05-17T07:39:30.591Z,23.46
2017-05-17T07:40:32.022Z,23.20
2017-05-17T07:41:33.467Z,23.20
2017-05-17T07:42:34.906Z,23.31
2017-05-17T07:43:36.344Z,23.49
2017-05-17T07:44:37.790Z,23.47
2017-05-17T07:45:39.252Z,23.43
2017-05-17T07:46:40.702Z,23.61
2017-05-17T07:47:42.138Z,23.65
2017-05-17T07:48:43.572Z,23.67
2017-05-17T07:49:45.103Z,23.80
2017-05-17T07:50:46.545Z,23.77
2017-05-17T07:51:47.982Z,23.87
2017-05-17T07:52:49.417Z,23.87
2017-05-17T07:53:50.850Z,23.83
2017-05-17T07:54:52.285Z,24.08
2017-05-17T07:55:53.711Z,24.01
2017-05-17T07:56:55.158Z,24.00
2017-05-17T07:57:56.595Z,24.22
2017-05-17T07:58:58.029Z,24.17
2017-05-17T07:59:59.466Z,24.20
2017-05-17T08:01:00.912Z,24.31
2017-05-17T08:02:02.350Z,24.32
2017-05-17T08:03:04.270Z,24.22
2017-05-17T08:04:05.710Z,24.27
2017-05-17T08:05:07.158Z,24.32
2017-05-17T08:06:08.595Z,24.38
2017-05-17T08:07:10.035Z,24.49
2017-05-17T08:08:11.466Z,24.47
2017-05-17T08:09:12.902Z,24.47
2017-05-17T08:10:14.331Z,24.45
2017-05-17T08:11:15.774Z,24.52
2017-05-17T08:12:17.215Z,24.39
2017-05-17T08:13:18.654Z,24.45
2017-05-17T08:14:20.109Z,24.45
2017-05-17T08:15:21.542Z,24.47
2017-05-17T08:16:22.978Z,24.52
2017-05-17T08:17:24.418Z,24.54
2017-05-17T08:18:25.857Z,24.68
2017-05-17T08:19:27.291Z,24.60
2017-05-17T08:20:28.725Z,24.64
2017-05-17T08:21:30.164Z,24.79
2017-05-17T08:22:31.604Z,24.80
2017-05-17T08:23:33.047Z,24.94
2017-05-17T08:24:34.482Z,24.85
2017-05-17T08:25:35.928Z,24.80
2017-05-17T08:26:37.355Z,24.82
2017-05-17T08:27:38.796Z,24.95
2017-05-17T08:28:40.242Z,24.94
2017-05-17T08:29:41.691Z,24.97
2017-05-17T08:30:43.131Z,25.13
2017-05-17T08:31:44.566Z,25.05
2017-05-17T08:32:46.004Z,25.06
2017-05-17T08:33:47.447Z,25.17
2017-05-17T08:34:48.887Z,25.07
2017-05-17T08:35:50.326Z,25.12
2017-05-17T08:36:51.765Z,25.25
2017-05-17T08:37:53.261Z,25.38
2017-05-17T08:38:54.644Z,25.47
2017-05-17T08:39:56.093Z,25.57
2017-05-17T08:40:57.537Z,25.49
2017-05-17T08:41:58.980Z,25.57
2017-05-17T08:43:00.420Z,25.65
2017-05-17T08:44:01.854Z,25.65
2017-05-17T08:45:03.290Z,25.62
2017-05-17T08:46:04.732Z,25.68
2017-05-17T08:47:06.166Z,25.69
2017-05-17T08:48:07.606Z,25.77
2017-05-17T08:49:09.045Z,25.65
2017-05-17T08:50:10.487Z,25.71
2017-05-17T08:51:11.927Z,25.71
2017-05-17T08:52:13.365Z,25.80
2017-05-17T08:53:14.806Z,25.87
2017-05-17T08:54:16.243Z,25.91
2017-05-17T08:55:17.677Z,25.89
2017-05-17T08:56:19.108Z,25.98
2017-05-17T08:57:20.545Z,25.90
2017-05-17T08:58:21.986Z,25.94
2017-05-17T08:59:23.427Z,25.97
2017-05-17T09:00:24.865Z,26.02
2017-05-17T09:01:26.302Z,25.98
2017-05-17T09:02:27.744Z,25.87
2017-05-17T09:03:29.868Z,25.84
2017-05-17T09:04:30.567Z,26.09
2017-05-17T09:05:32.006Z,26.01
2017-05-17T09:06:33.451Z,26.06
2017-05-17T09:07:34.893Z,26.20
2017-05-17T09:08:36.343Z,26.31
2017-05-17T09:09:37.779Z,26.40
2017-05-17T09:10:39.226Z,26.39
2017-05-17T09:11:40.655Z,26.25
2017-05-17T09:12:42.097Z,26.29
2017-05-17T09:13:43.540Z,26.37
2017-05-17T09:14:44.976Z,26.37
2017-05-17T09:15:46.415Z,26.46
2017-05-17T09:16:47.855Z,26.58
2017-05-17T09:17:49.297Z,26.61
2017-05-17T09:18:50.737Z,26.50
2017-05-17T09:19:52.180Z,26.62
2017-05-17T09:20:53.614Z,26.72
2017-05-17T09:21:55.057Z,26.74
2017-05-17T09:22:56.493Z,26.83
2017-05-17T09:23:57.937Z,26.76
2017-05-17T09:24:59.414Z,26.83
2017-05-17T09:26:00.861Z,26.81
2017-05-17T09:27:02.308Z,27.01
2017-05-17T09:28:03.753Z,27.02
2017-05-17T09:29:05.195Z,26.99
2017-05-17T09:30:06.636Z,26.84
2017-05-17T09:31:08.072Z,26.86
2017-05-17T09:32:09.517Z,26.94
2017-05-17T09:33:10.961Z,26.94
2017-05-17T09:34:12.401Z,26.98
2017-05-17T09:35:13.843Z,26.99
2017-05-17T09:36:15.280Z,26.98
2017-05-17T09:37:16.723Z,27.24
2017-05-17T09:38:18.166Z,27.29
2017-05-17T09:39:19.605Z,27.39
2017-05-17T09:40:21.043Z,27.36
2017-05-17T09:41:22.485Z,27.36
2017-05-17T09:42:24.563Z,27.43
2017-05-17T09:43:27.316Z,27.64
2017-05-17T09:44:28.784Z,27.48
2017-05-17T09:45:30.223Z,27.26
2017-05-17T09:46:31.669Z,27.39
2017-05-17T09:47:33.110Z,27.20
2017-05-17T09:48:34.543Z,27.11
2017-05-17T09:49:35.980Z,27.17
2017-05-17T09:50:37.423Z,27.24
2017-05-17T09:51:38.869Z,27.64
2017-05-17T09:52:40.307Z,27.66
2017-05-17T09:53:41.744Z,27.79
2017-05-17T09:54:43.222Z,27.58
2017-05-17T09:55:44.657Z,27.70
2017-05-17T09:56:46.104Z,27.71
2017-05-17T09:57:47.557Z,27.77
2017-05-17T09:58:48.999Z,27.85
2017-05-17T09:59:50.451Z,27.98
2017-05-17T10:00:51.903Z,28.01
2017-05-17T10:01:53.343Z,27.91
2017-05-17T10:02:54.790Z,27.99
2017-05-17T10:03:56.233Z,27.80
2017-05-17T10:04:57.671Z,27.74
2017-05-17T10:05:59.114Z,27.85
2017-05-17T10:07:00.553Z,27.69
2017-05-17T10:08:02.000Z,27.70
2017-05-17T10:09:03.440Z,27.79
2017-05-17T10:10:04.923Z,27.86
2017-05-17T10:11:06.362Z,27.94
2017-05-17T10:12:07.799Z,27.94
2017-05-17T10:13:09.259Z,28.17
2017-05-17T10:14:10.699Z,28.22
2017-05-17T10:15:12.141Z,28.03
2017-05-17T10:16:13.582Z,27.98
2017-05-17T10:17:15.026Z,28.17
2017-05-17T10:18:16.466Z,28.26
2017-05-17T10:19:18.635Z,28.26
2017-05-17T10:20:20.074Z,28.35
2017-05-17T10:21:21.529Z,28.47
2017-05-17T10:22:22.966Z,28.48
2017-05-17T10:23:24.406Z,28.65
2017-05-17T10:24:25.853Z,28.58
2017-05-17T10:25:27.295Z,28.62
2017-05-17T10:26:28.745Z,28.73
2017-05-17T10:27:30.191Z,28.82
2017-05-17T10:28:31.630Z,28.66
2017-05-17T10:29:33.067Z,28.63
2017-05-17T10:30:34.523Z,28.66
2017-05-17T10:31:36.670Z,28.73
2017-05-17T10:32:38.815Z,28.65
2017-05-17T10:33:40.253Z,28.51
2017-05-17T10:34:41.692Z,28.56
2017-05-17T10:35:43.139Z,28.80
2017-05-17T10:36:44.576Z,28.82
2017-05-17T10:37:46.020Z,28.77
2017-05-17T10:38:47.459Z,28.96
2017-05-17T10:39:48.896Z,28.97
2017-05-17T10:40:50.337Z,29.11
2017-05-17T10:41:51.779Z,29.23
2017-05-17T10:42:53.223Z,28.90
2017-05-17T10:43:54.663Z,29.00
2017-05-17T10:44:56.116Z,28.93
2017-05-17T10:45:57.555Z,29.25
2017-05-17T10:46:58.992Z,29.38
2017-05-17T10:48:00.435Z,29.44
2017-05-17T10:49:01.890Z,29.47
2017-05-17T10:50:03.325Z,29.37
2017-05-17T10:51:04.766Z,29.57
2017-05-17T10:52:06.215Z,29.53
2017-05-17T10:53:07.652Z,29.43
2017-05-17T10:54:09.099Z,29.56
2017-05-17T10:55:10.526Z,29.71
2017-05-17T10:56:11.975Z,29.45
2017-05-17T10:57:13.416Z,29.23
2017-05-17T10:58:14.852Z,29.49
2017-05-17T10:59:16.299Z,29.45
2017-05-17T11:00:17.741Z,29.68
2017-05-17T11:01:19.181Z,29.60
2017-05-17T11:02:20.635Z,29.40
2017-05-17T11:03:22.077Z,29.40
2017-05-17T11:04:23.518Z,29.43
2017-05-17T11:05:24.959Z,29.66
2017-05-17T11:06:26.413Z,29.78
2017-05-17T11:07:27.851Z,29.86
2017-05-17T11:08:29.295Z,29.86
2017-05-17T11:09:30.738Z,30.09
2017-05-17T11:10:32.174Z,29.79
2017-05-17T11:11:33.676Z,29.89
2017-05-17T11:12:35.121Z,29.96
2017-05-17T11:13:36.568Z,29.81
2017-05-17T11:14:38.014Z,30.02
2017-05-17T11:15:39.468Z,29.78
2017-05-17T11:16:40.924Z,29.94
2017-05-17T11:17:42.381Z,29.81
2017-05-17T11:18:43.821Z,29.90
2017-05-17T11:19:45.421Z,29.77
2017-05-17T11:20:46.865Z,29.74
2017-05-17T11:21:48.305Z,29.79
2017-05-17T11:22:49.748Z,29.99
2017-05-17T11:23:51.197Z,30.11
2017-05-17T11:24:52.638Z,30.05
2017-05-17T11:25:54.089Z,30.03
2017-05-17T11:26:55.544Z,29.96
2017-05-17T11:27:56.988Z,29.97
2017-05-17T11:28:58.428Z,30.00
2017-05-17T11:29:59.871Z,30.14
2017-05-17T11:31:01.328Z,30.02
2017-05-17T11:32:02.770Z,30.18
2017-05-17T11:33:04.209Z,30.12
2017-05-17T11:34:05.653Z,30.12
2017-05-17T11:35:07.101Z,30.21
2017-05-17T11:36:08.538Z,30.24
2017-05-17T11:37:09.983Z,30.52
2017-05-17T11:38:11.423Z,30.64
2017-05-17T11:39:12.871Z,30.46
2017-05-17T11:40:14.313Z,30.78
2017-05-17T11:41:15.753Z,30.49
2017-05-17T11:42:17.196Z,30.33
2017-05-17T11:43:19.411Z,30.19
2017-05-17T11:44:20.858Z,30.26
2017-05-17T11:45:22.298Z,30.23
2017-05-17T11:46:23.738Z,30.54
2017-05-17T11:47:25.178Z,30.37
2017-05-17T11:48:26.635Z,30.61
2017-05-17T11:49:28.079Z,30.80
2017-05-17T11:50:29.526Z,30.94
2017-05-17T11:51:30.975Z,30.83
2017-05-17T11:52:32.471Z,30.80
2017-05-17T11:53:33.854Z,30.76
2017-05-17T11:54:35.301Z,30.86
2017-05-17T11:55:36.743Z,30.94
2017-05-17T11:56:38.182Z,31.01
2017-05-17T11:57:39.623Z,30.91
2017-05-17T11:58:41.068Z,30.65
2017-05-17T11:59:42.505Z,30.87
2017-05-17T12:00:43.951Z,30.74
2017-05-17T12:01:45.385Z,30.81
2017-05-17T12:02:46.839Z,31.06
2017-05-17T12:03:48.278Z,31.04
2017-05-17T12:04:49.729Z,31.02
2017-05-17T12:05:51.194Z,31.24
2017-05-17T12:06:52.625Z,31.23
2017-05-17T12:07:54.073Z,30.96
2017-05-17T12:08:55.508Z,31.13
2017-05-17T12:09:56.962Z,31.26
2017-05-17T12:10:58.402Z,31.30
2017-05-17T12:11:59.852Z,31.11
2017-05-17T12:13:01.293Z,31.08
2017-05-17T12:14:02.742Z,30.87
2017-05-17T12:15:04.233Z,31.05
2017-05-17T12:16:05.626Z,31.15
2017-05-17T12:17:07.071Z,31.26
2017-05-17T12:18:10.101Z,30.98
2017-05-17T12:19:11.557Z,31.12
2017-05-17T12:20:13.000Z,31.21
2017-05-17T12:21:15.203Z,31.38
2017-05-17T12:22:16.651Z,31.40
2017-05-17T12:23:18.087Z,31.36
2017-05-17T12:24:19.532Z,31.23
2017-05-17T12:25:20.969Z,31.13
2017-05-17T12:26:22.416Z,31.15
2017-05-17T12:27:23.864Z,31.12
2017-05-17T12:28:25.313Z,31.23
2017-05-17T12:29:26.751Z,31.24
2017-05-17T12:30:28.192Z,31.11
2017-05-17T12:31:29.638Z,31.24
2017-05-17T12:32:31.083Z,31.48
2017-05-17T12:33:32.531Z,31.67
2017-05-17T12:34:33.969Z,31.58
2017-05-17T12:35:35.417Z,31.73
2017-05-17T12:36:36.862Z,31.92
2017-05-17T12:37:38.293Z,31.65
2017-05-17T12:38:39.740Z,31.75
2017-05-17T12:39:41.190Z,31.76
2017-05-17T12:40:42.634Z,31.48
2017-05-17T12:41:44.086Z,31.64
2017-05-17T12:42:45.529Z,31.48
2017-05-17T12:43:47.722Z,31.72
2017-05-17T12:44:49.168Z,31.67
2017-05-17T12:45:52.217Z,31.48
2017-05-17T12:46:53.669Z,31.48
2017-05-17T12:47:56.078Z,31.53
2017-05-17T12:48:57.520Z,31.12
2017-05-17T12:49:58.980Z,31.24
2017-05-17T12:51:00.418Z,31.40
2017-05-17T12:52:01.891Z,31.54
2017-05-17T12:53:03.341Z,31.54
2017-05-17T12:54:04.812Z,31.62
2017-05-17T12:55:06.253Z,31.38
2017-05-17T12:56:07.706Z,31.48
2017-05-17T12:57:09.160Z,31.67
2017-05-17T12:58:10.607Z,31.60
2017-05-17T12:59:12.873Z,31.49
2017-05-17T13:00:14.319Z,31.73
2017-05-17T13:01:15.771Z,31.72
2017-05-17T13:02:17.222Z,31.82
2017-05-17T13:03:18.683Z,31.95
2017-05-17T13:04:20.127Z,31.58
2017-05-17T13:05:21.584Z,31.55
2017-05-17T13:06:23.045Z,31.58
2017-05-17T13:07:24.489Z,31.73
2017-05-17T13:08:25.940Z,31.60
2017-05-17T13:09:27.384Z,31.61
2017-05-17T13:10:28.835Z,31.73
2017-05-17T13:11:30.275Z,31.91